Wichita Mid Continent Airport
KICT : rendu visible

Aérodrome :











RETROUVEZ-NOUS SUR...

 
LOGIN :

S'inscrire | Disclaimer

   EN    FR    IT 

 









Légende :    VFR   VFR Marginal   IFR   IFR Intensif   IFR Très Intensif
Visi : 
Plafond : 
>= 8 km
>= 3000ft
5 à 8 km
1000 à 3000 ft
1500m à 5 km
500 à 1000 ft
800 à 1500m
200 à 500 ft
< 800m
< 200 ft
Symboles :   Orages  Brouillard  Fortes neiges  Fortes précipitations  Vent > 20 kt






- Altitude de l'aérodrome : 1333 ft
- Code IATA : ICT


KICT - Wichita Mid Continent

DERNIER METAR :
  • 301553Z 19012KT 10SM CLR 28/14 A3000 RMK AO2 SLP144 T02830139

METARs EXPIRÉS :
  • 301453Z 20014G21KT 10SM FEW220 27/13 A3003 RMK AO2 SLP156 T02670128 58009
  • 301353Z 19013KT 10SM FEW220 24/14 A3004 RMK AO2 SLP158 T02390139

TAF KICT
Valide du 30 à 12h jusqu'au 01 à 12h UTC


301122Z 3012/0112 18009KT P6SM SKC
FM301700 19017G25KT P6SM SKC
FM010000 16013KT P6SM SKC
FIR KZKC / Amérique du Nord



MET'MAP, la Météo Aéronautique d'un coup d'oeil ! - Copyright ORBIFLY Décembre 2007 - Disclaimer

ORBIFLY MET'MAP TEAM :

Programmation & Développement : Alexandra Zaïnal
Sur une idée originale de : Baudouin d'Aumeries
Soutien technique & logistique : Manuel Goepfert
Assistance : Marc-Olivier Méhu




SOURCES & CREDITS :

   NOAA       Earth
Advisory